Time;durP1;ratioP1;P1;durP2;ratioP2;P2;SDS_P1;SDS_P2;PMS_P1;PMS_P2;Temp;Humidity;BMP_temperature;BMP_pressure;BME280_temperature;BME280_humidity;BME280_pressure;Samples;Min_cycle;Max_cycle;Signal;HPM_P1;HPM_P2
2022/10/26 00:02:26;;;;;;;24.42;10.60;;;;;;;;;;5055315;28;20025;-71
2022/10/26 00:04:51;;;;;;;21.60;10.55;;;;;;;;;;5038135;28;20493;-73
2022/10/26 00:07:17;;;;;;;28.65;12.52;;;;;;;;;;5064350;28;20025;-72
2022/10/26 00:09:43;;;;;;;19.08;10.07;;;;;;;;;;5066313;28;20575;-73
2022/10/26 00:12:09;;;;;;;19.95;10.82;;;;;;;;;;5062544;28;20037;-72
2022/10/26 00:14:35;;;;;;;22.25;10.82;;;;;;;;;;5036937;28;20131;-73
2022/10/26 00:17:01;;;;;;;21.65;10.30;;;;;;;;;;5054522;28;20537;-73
2022/10/26 00:19:27;;;;;;;27.02;11.70;;;;;;;;;;5054255;28;20033;-72
2022/10/26 00:21:53;;;;;;;21.27;10.80;;;;;;;;;;5054210;28;20060;-73
2022/10/26 00:24:19;;;;;;;19.33;10.25;;;;;;;;;;5054814;28;20072;-72
2022/10/26 00:26:45;;;;;;;25.58;11.02;;;;;;;;;;5054225;28;20025;-74
2022/10/26 00:29:12;;;;;;;29.42;11.50;;;;;;;;;;5054287;28;20394;-73
2022/10/26 00:31:38;;;;;;;26.00;10.73;;;;;;;;;;5054456;28;20021;-73
2022/10/26 00:34:04;;;;;;;24.83;10.80;;;;;;;;;;5054518;28;20021;-73
2022/10/26 00:36:30;;;;;;;20.83;10.95;;;;;;;;;;5058434;28;20032;-72
2022/10/26 00:38:56;;;;;;;23.85;10.32;;;;;;;;;;5057658;28;20102;-72
2022/10/26 00:41:24;;;;;;;23.45;10.32;;;;;;;;;;5057279;28;20474;-73
2022/10/26 00:43:50;;;;;;;20.98;10.68;;;;;;;;;;5054094;28;20485;-73
2022/10/26 00:46:19;;;;;;;23.52;10.43;;;;;;;;;;5053714;28;20532;-73
2022/10/26 00:48:46;;;;;;;21.25;10.43;;;;;;;;;;5054042;28;20027;-73
2022/10/26 00:51:17;;;;;;;25.15;10.98;;;;;;;;;;5054004;28;20075;-73
2022/10/26 00:53:44;;;;;;;24.58;10.07;;;;;;;;;;5053526;28;20094;-73
2022/10/26 00:56:10;;;;;;;19.67;10.30;;;;;;;;;;5054159;28;20029;-73
2022/10/26 00:58:36;;;;;;;22.13;10.93;;;;;;;;;;5036120;28;20037;-73
2022/10/26 01:01:02;;;;;;;22.42;11.88;;;;;;;;;;5053260;28;20025;-72
2022/10/26 01:03:30;;;;;;;20.88;11.45;;;;;;;;;;5053871;28;20028;-71
2022/10/26 01:05:57;;;;;;;23.88;11.35;;;;;;;;;;5053663;28;20190;-73
2022/10/26 01:08:23;;;;;;;24.98;10.95;;;;;;;;;;5053866;28;20032;-73
2022/10/26 01:10:49;;;;;;;17.95;11.13;;;;;;;;;;5054154;28;20025;-72
2022/10/26 01:13:16;;;;;;;27.95;12.20;;;;;;;;;;5055401;28;20087;-72
2022/10/26 01:15:51;;;;;;;25.60;11.27;;;;;;;;;;5062664;28;20056;-73
2022/10/26 01:18:27;;;;;;;24.65;10.10;;;;;;;;;;5069000;28;20013;-70
2022/10/26 01:21:02;;;;;;;18.63;10.02;;;;;;;;;;5058525;28;20036;-73
2022/10/26 01:23:37;;;;;;;25.13;10.13;;;;;;;;;;5061716;28;20036;-72
2022/10/26 01:26:18;;;;;;;23.55;10.57;;;;;;;;;;5061159;28;20052;-72
2022/10/26 01:29:03;;;;;;;20.33;10.38;;;;;;;;;;5061716;28;20060;-74
2022/10/26 01:31:32;;;;;;;21.45;10.30;;;;;;;;;;5054498;28;20025;-72
2022/10/26 01:34:04;;;;;;;25.63;11.15;;;;;;;;;;5053528;28;20116;-73
2022/10/26 01:36:43;;;;;;;20.00;10.98;;;;;;;;;;5053514;28;20112;-72
2022/10/26 01:39:09;;;;;;;24.20;10.75;;;;;;;;;;5053287;28;20044;-74
2022/10/26 01:41:41;;;;;;;23.52;10.85;;;;;;;;;;5052738;28;20021;-72
2022/10/26 01:44:10;;;;;;;25.05;11.65;;;;;;;;;;5053291;28;20064;-73
2022/10/26 01:46:38;;;;;;;23.15;10.25;;;;;;;;;;5052967;28;20064;-73
2022/10/26 01:49:06;;;;;;;26.00;11.32;;;;;;;;;;5053059;28;20021;-71
2022/10/26 01:51:33;;;;;;;19.50;10.43;;;;;;;;;;5052795;28;20059;-72
2022/10/26 01:53:59;;;;;;;19.73;10.60;;;;;;;;;;5052626;28;20074;-72
2022/10/26 01:56:27;;;;;;;22.05;10.85;;;;;;;;;;5052987;28;20029;-72
2022/10/26 01:58:59;;;;;;;24.35;11.90;;;;;;;;;;5053187;28;20099;-72
2022/10/26 02:01:37;;;;;;;32.60;12.18;;;;;;;;;;5052970;28;20067;-72
2022/10/26 02:04:26;;;;;;;27.17;11.40;;;;;;;;;;5052808;28;20348;-71
2022/10/26 02:07:14;;;;;;;25.88;11.25;;;;;;;;;;5052749;28;20056;-72
2022/10/26 02:09:52;;;;;;;24.33;11.65;;;;;;;;;;5053234;28;20028;-73
2022/10/26 02:12:30;;;;;;;25.08;11.98;;;;;;;;;;5053268;28;20029;-74
2022/10/26 02:15:16;;;;;;;23.17;12.43;;;;;;;;;;5054924;28;20033;-73
2022/10/26 02:17:56;;;;;;;26.52;11.82;;;;;;;;;;5054563;28;20044;-72
2022/10/26 02:20:27;;;;;;;22.55;11.68;;;;;;;;;;5054055;28;20528;-73
2022/10/26 02:22:54;;;;;;;21.90;11.65;;;;;;;;;;5036379;28;20497;-73
2022/10/26 02:25:23;;;;;;;27.92;11.63;;;;;;;;;;5053513;28;20484;-73
2022/10/26 02:27:53;;;;;;;26.17;11.82;;;;;;;;;;5053013;28;20528;-72
2022/10/26 02:30:19;;;;;;;27.23;11.85;;;;;;;;;;5053393;28;20079;-74
2022/10/26 02:32:47;;;;;;;25.50;11.68;;;;;;;;;;5038721;28;20494;-74
2022/10/26 02:35:15;;;;;;;26.30;12.02;;;;;;;;;;5059293;28;20061;-73
2022/10/26 02:37:41;;;;;;;21.55;12.02;;;;;;;;;;5067692;28;20017;-73
2022/10/26 02:40:11;;;;;;;26.70;11.27;;;;;;;;;;5078901;28;20075;-74
2022/10/26 02:42:39;;;;;;;34.97;11.90;;;;;;;;;;5073522;28;20029;-71
2022/10/26 02:45:09;;;;;;;27.05;12.38;;;;;;;;;;5056292;28;20025;-71
2022/10/26 02:47:35;;;;;;;22.83;11.30;;;;;;;;;;5057921;28;20032;-72
2022/10/26 02:50:01;;;;;;;28.25;12.23;;;;;;;;;;5056084;28;20029;-71
2022/10/26 02:52:27;;;;;;;23.23;13.38;;;;;;;;;;5055565;28;20402;-73
2022/10/26 02:54:55;;;;;;;25.70;13.00;;;;;;;;;;5056022;28;20029;-72
2022/10/26 02:57:27;;;;;;;32.65;12.98;;;;;;;;;;5056284;28;20115;-73
2022/10/26 02:59:53;;;;;;;28.10;12.70;;;;;;;;;;5057678;28;20370;-71
2022/10/26 03:02:20;;;;;;;21.88;13.02;;;;;;;;;;5057345;28;20406;-73
2022/10/26 03:04:47;;;;;;;26.45;12.98;;;;;;;;;;5059137;28;20027;-74
2022/10/26 03:07:13;;;;;;;26.65;12.65;;;;;;;;;;5056840;28;20489;-73
2022/10/26 03:09:39;;;;;;;22.98;12.20;;;;;;;;;;5056458;28;20037;-71
2022/10/26 03:12:05;;;;;;;24.77;11.98;;;;;;;;;;5056513;28;20031;-73
2022/10/26 03:14:31;;;;;;;32.33;12.75;;;;;;;;;;5059557;28;20024;-75
2022/10/26 03:16:57;;;;;;;25.15;12.40;;;;;;;;;;5066414;28;20048;-73
2022/10/26 03:19:22;;;;;;;20.05;11.60;;;;;;;;;;5066936;28;20068;-74
2022/10/26 03:21:48;;;;;;;22.08;11.93;;;;;;;;;;5059693;28;20110;-73
2022/10/26 03:24:14;;;;;;;23.73;12.20;;;;;;;;;;5056469;28;20021;-73
2022/10/26 03:26:40;;;;;;;22.80;12.68;;;;;;;;;;5055826;28;20051;-72
2022/10/26 03:29:07;;;;;;;27.05;12.82;;;;;;;;;;5055734;28;20075;-72
2022/10/26 03:31:33;;;;;;;22.13;12.35;;;;;;;;;;5056009;28;20090;-73
2022/10/26 03:33:59;;;;;;;31.40;12.35;;;;;;;;;;5056265;28;20021;-73
2022/10/26 03:36:25;;;;;;;22.90;12.27;;;;;;;;;;5060079;28;20147;-72
2022/10/26 03:38:51;;;;;;;26.42;12.98;;;;;;;;;;5062305;28;20025;-72
2022/10/26 03:41:17;;;;;;;22.77;11.88;;;;;;;;;;5072834;28;20088;-73
2022/10/26 03:43:43;;;;;;;24.65;12.57;;;;;;;;;;5073696;28;20048;-73
2022/10/26 03:46:09;;;;;;;24.10;11.95;;;;;;;;;;5074308;28;20048;-73
2022/10/26 03:48:35;;;;;;;24.33;11.10;;;;;;;;;;5042861;28;20079;-73
2022/10/26 03:51:01;;;;;;;22.63;11.02;;;;;;;;;;5055617;28;20028;-73
2022/10/26 03:53:27;;;;;;;23.90;11.77;;;;;;;;;;5054836;28;20068;-72
2022/10/26 03:55:53;;;;;;;21.05;12.18;;;;;;;;;;5054841;28;20032;-73
2022/10/26 03:58:19;;;;;;;24.70;11.00;;;;;;;;;;5036772;28;20487;-73
2022/10/26 04:00:45;;;;;;;25.75;10.55;;;;;;;;;;5054390;28;20394;-73
2022/10/26 04:03:11;;;;;;;19.90;10.27;;;;;;;;;;5054359;28;20072;-74
2022/10/26 04:05:36;;;;;;;20.15;10.77;;;;;;;;;;5054255;28;20025;-73
2022/10/26 04:08:02;;;;;;;21.40;10.65;;;;;;;;;;5054484;28;20036;-71
2022/10/26 04:10:28;;;;;;;26.67;12.15;;;;;;;;;;5054033;28;20108;-71
2022/10/26 04:12:55;;;;;;;27.05;11.02;;;;;;;;;;5053893;28;20123;-74
2022/10/26 04:15:21;;;;;;;27.88;11.57;;;;;;;;;;5054532;28;20111;-72
2022/10/26 04:17:47;;;;;;;23.65;12.88;;;;;;;;;;5054165;28;20090;-71
2022/10/26 04:20:13;;;;;;;25.58;13.15;;;;;;;;;;5055338;28;20064;-73
2022/10/26 04:22:39;;;;;;;25.38;12.32;;;;;;;;;;5056139;28;20028;-73
2022/10/26 04:25:06;;;;;;;28.58;12.07;;;;;;;;;;5054217;28;20025;-74
2022/10/26 04:27:32;;;;;;;27.90;13.00;;;;;;;;;;5053835;28;20060;-72
2022/10/26 04:29:58;;;;;;;37.45;14.38;;;;;;;;;;5056758;28;20025;-72
2022/10/26 04:32:24;;;;;;;29.10;14.15;;;;;;;;;;5038114;28;20032;-73
2022/10/26 04:34:53;;;;;;;28.83;13.93;;;;;;;;;;5055941;28;20025;-72
2022/10/26 04:37:19;;;;;;;26.17;13.60;;;;;;;;;;5056880;28;20406;-73
2022/10/26 04:39:44;;;;;;;30.38;14.07;;;;;;;;;;5054978;28;20036;-72
2022/10/26 04:42:10;;;;;;;32.72;15.63;;;;;;;;;;5053624;28;20046;-72
2022/10/26 04:44:36;;;;;;;31.67;15.63;;;;;;;;;;5053793;28;20110;-71
2022/10/26 04:47:02;;;;;;;29.92;15.57;;;;;;;;;;5035575;28;20013;-72
2022/10/26 04:49:28;;;;;;;29.65;15.95;;;;;;;;;;5054080;28;20531;-72
2022/10/26 04:51:54;;;;;;;30.98;16.70;;;;;;;;;;5053519;28;20478;-72
2022/10/26 04:54:20;;;;;;;37.17;15.80;;;;;;;;;;5053703;28;20025;-73
2022/10/26 04:56:46;;;;;;;36.22;17.58;;;;;;;;;;5034829;28;20032;-74
2022/10/26 04:59:12;;;;;;;34.83;16.77;;;;;;;;;;5053324;28;20025;-71
2022/10/26 05:01:38;;;;;;;33.72;17.83;;;;;;;;;;5053452;28;20505;-73
2022/10/26 05:04:04;;;;;;;31.40;17.25;;;;;;;;;;5053455;28;20025;-72
2022/10/26 05:06:30;;;;;;;33.08;17.90;;;;;;;;;;5055004;28;20017;-73
2022/10/26 05:08:56;;;;;;;39.20;18.88;;;;;;;;;;5053713;28;20529;-74
2022/10/26 05:11:22;;;;;;;45.58;20.80;;;;;;;;;;5053385;28;20101;-73
2022/10/26 05:13:48;;;;;;;48.35;21.23;;;;;;;;;;5053226;28;20109;-73
2022/10/26 05:16:15;;;;;;;52.63;23.05;;;;;;;;;;5053805;28;20443;-73
2022/10/26 05:18:41;;;;;;;58.88;24.52;;;;;;;;;;5053659;28;20017;-73
2022/10/26 05:21:07;;;;;;;59.00;25.77;;;;;;;;;;5053270;28;20029;-74
2022/10/26 05:23:33;;;;;;;59.20;25.63;;;;;;;;;;5055357;28;20375;-72
2022/10/26 05:25:59;;;;;;;70.50;27.00;;;;;;;;;;5057527;28;20035;-71
2022/10/26 05:28:24;;;;;;;53.42;24.58;;;;;;;;;;5055959;28;20033;-71
2022/10/26 05:30:50;;;;;;;53.78;24.10;;;;;;;;;;5055160;28;20081;-74
2022/10/26 05:33:16;;;;;;;54.75;24.90;;;;;;;;;;5054799;28;20025;-73
2022/10/26 05:35:42;;;;;;;55.72;25.63;;;;;;;;;;5054695;28;20029;-72
2022/10/26 05:38:08;;;;;;;54.42;25.58;;;;;;;;;;5036328;28;20025;-72
2022/10/26 05:40:34;;;;;;;60.17;26.17;;;;;;;;;;5056627;28;20032;-73
2022/10/26 05:43:00;;;;;;;54.05;25.98;;;;;;;;;;5055153;28;20042;-73
2022/10/26 05:45:26;;;;;;;59.25;26.58;;;;;;;;;;5054111;28;20041;-72
2022/10/26 05:47:52;;;;;;;66.05;27.23;;;;;;;;;;5054207;28;20028;-74
2022/10/26 05:50:18;;;;;;;57.40;25.58;;;;;;;;;;5054958;28;20434;-72
2022/10/26 05:52:45;;;;;;;50.63;24.08;;;;;;;;;;5055007;28;20021;-73
2022/10/26 05:55:16;;;;;;;53.80;25.33;;;;;;;;;;5054281;28;20448;-73
2022/10/26 05:57:42;;;;;;;48.83;24.52;;;;;;;;;;5053919;28;20029;-72
2022/10/26 06:00:08;;;;;;;53.45;24.98;;;;;;;;;;5053552;28;20392;-72
2022/10/26 06:02:43;;;;;;;58.25;27.45;;;;;;;;;;5053607;28;20020;-72
2022/10/26 06:05:10;;;;;;;48.40;23.83;;;;;;;;;;5053470;28;20035;-73
2022/10/26 06:07:36;;;;;;;50.25;24.73;;;;;;;;;;5055730;28;20393;-72
2022/10/26 06:10:02;;;;;;;50.55;23.75;;;;;;;;;;5057379;28;20029;-72
2022/10/26 06:12:28;;;;;;;57.45;26.75;;;;;;;;;;5056475;28;20044;-73
2022/10/26 06:14:54;;;;;;;65.88;25.98;;;;;;;;;;5056863;28;20028;-71
2022/10/26 06:17:23;;;;;;;56.53;25.40;;;;;;;;;;5057114;28;20086;-73
2022/10/26 06:19:49;;;;;;;60.30;26.45;;;;;;;;;;5057190;28;20104;-73
2022/10/26 06:22:27;;;;;;;65.72;25.17;;;;;;;;;;5057180;28;20044;-73
2022/10/26 06:24:56;;;;;;;47.88;24.50;;;;;;;;;;5058032;28;20021;-74
2022/10/26 06:27:25;;;;;;;46.08;23.90;;;;;;;;;;5061604;28;20064;-73
2022/10/26 06:30:01;;;;;;;56.60;24.30;;;;;;;;;;5062535;28;20389;-73
2022/10/26 06:32:28;;;;;;;40.95;23.30;;;;;;;;;;5058037;28;20052;-75
2022/10/26 06:35:07;;;;;;;63.97;25.73;;;;;;;;;;5056414;28;20470;-72
2022/10/26 06:37:34;;;;;;;66.57;25.52;;;;;;;;;;5056452;28;20029;-72
2022/10/26 06:40:00;;;;;;;51.25;27.35;;;;;;;;;;5038781;28;20040;-72
2022/10/26 06:42:26;;;;;;;102.43;25.25;;;;;;;;;;5057875;28;20037;-73
2022/10/26 06:44:53;;;;;;;50.97;27.13;;;;;;;;;;5057682;28;20025;-73
2022/10/26 06:47:25;;;;;;;57.30;24.98;;;;;;;;;;5056908;28;20024;-72
2022/10/26 06:49:58;;;;;;;61.50;28.27;;;;;;;;;;5056761;28;20021;-72
2022/10/26 06:52:42;;;;;;;57.63;28.27;;;;;;;;;;5056850;28;20474;-71
2022/10/26 06:55:13;;;;;;;56.03;29.25;;;;;;;;;;5059017;28;20104;-73
2022/10/26 06:57:40;;;;;;;59.42;28.60;;;;;;;;;;5058879;28;20060;-72
2022/10/26 07:00:08;;;;;;;52.10;27.73;;;;;;;;;;5057302;28;20501;-73
2022/10/26 07:02:34;;;;;;;51.72;26.23;;;;;;;;;;5057422;28;20033;-73
2022/10/26 07:05:00;;;;;;;66.28;30.05;;;;;;;;;;5056938;28;20102;-74
2022/10/26 07:07:29;;;;;;;66.18;29.75;;;;;;;;;;5055608;28;20031;-72
2022/10/26 07:09:55;;;;;;;65.35;32.85;;;;;;;;;;5056716;28;20021;-73
2022/10/26 07:12:21;;;;;;;56.88;28.45;;;;;;;;;;5082436;22;20060;-77
2022/10/26 07:14:47;;;;;;;67.60;31.58;;;;;;;;;;5075847;28;20044;-76
2022/10/26 07:17:13;;;;;;;57.08;29.45;;;;;;;;;;5077066;28;20028;-77
2022/10/26 07:19:39;;;;;;;69.10;29.70;;;;;;;;;;5076283;28;20028;-76
2022/10/26 07:22:05;;;;;;;62.55;29.98;;;;;;;;;;5077636;28;20380;-77
2022/10/26 07:24:31;;;;;;;56.42;27.55;;;;;;;;;;5079027;28;20025;-76
2022/10/26 07:26:58;;;;;;;53.38;28.88;;;;;;;;;;5077786;28;20020;-78
2022/10/26 07:29:24;;;;;;;48.08;26.45;;;;;;;;;;5082995;28;20029;-77
2022/10/26 07:31:50;;;;;;;51.20;27.35;;;;;;;;;;5088842;28;20032;-76
2022/10/26 07:34:16;;;;;;;74.45;36.88;;;;;;;;;;5091318;28;20033;-75
2022/10/26 07:36:42;;;;;;;45.10;25.48;;;;;;;;;;5088222;28;20417;-75
2022/10/26 07:39:08;;;;;;;59.33;28.15;;;;;;;;;;5079161;28;20027;-78
2022/10/26 07:41:34;;;;;;;43.92;24.40;;;;;;;;;;5077941;28;20064;-76
2022/10/26 07:44:00;;;;;;;45.63;23.58;;;;;;;;;;5076559;28;20020;-76
2022/10/26 07:46:26;;;;;;;38.75;22.38;;;;;;;;;;5075237;28;20033;-77
2022/10/26 07:48:53;;;;;;;41.05;21.52;;;;;;;;;;5076286;28;20035;-77
2022/10/26 07:51:19;;;;;;;40.47;21.00;;;;;;;;;;5077004;28;20032;-77
2022/10/26 07:53:45;;;;;;;36.17;20.98;;;;;;;;;;5076316;28;20393;-78
2022/10/26 07:56:11;;;;;;;41.20;20.88;;;;;;;;;;5076389;28;20036;-76
2022/10/26 07:58:37;;;;;;;34.20;19.13;;;;;;;;;;5075125;28;20032;-77
2022/10/26 08:01:07;;;;;;;30.13;16.50;;;;;;;;;;5074913;28;20024;-77
2022/10/26 08:03:33;;;;;;;37.40;16.58;;;;;;;;;;5074738;28;20017;-77
2022/10/26 08:06:00;;;;;;;26.10;14.93;;;;;;;;;;5073892;28;20470;-75
2022/10/26 08:08:26;;;;;;;26.05;14.18;;;;;;;;;;5074946;28;20386;-77
2022/10/26 08:10:52;;;;;;;25.40;12.93;;;;;;;;;;5080945;28;20032;-76
2022/10/26 08:13:18;;;;;;;40.17;22.60;;;;;;;;;;5082155;28;20040;-77
2022/10/26 08:15:44;;;;;;;27.13;15.05;;;;;;;;;;5082131;28;20338;-78
2022/10/26 08:18:10;;;;;;;19.98;11.93;;;;;;;;;;5085775;28;20025;-77
2022/10/26 08:20:36;;;;;;;21.48;11.50;;;;;;;;;;5091876;28;20048;-77
2022/10/26 08:23:05;;;;;;;19.67;10.93;;;;;;;;;;5076983;28;20028;-76
2022/10/26 08:25:31;;;;;;;21.05;10.98;;;;;;;;;;5079923;28;20027;-77
2022/10/26 08:28:02;;;;;;;21.35;9.63;;;;;;;;;;5082509;28;20031;-78
2022/10/26 08:30:29;;;;;;;23.42;10.10;;;;;;;;;;5074583;28;20028;-77
2022/10/26 08:33:03;;;;;;;20.40;9.68;;;;;;;;;;5074489;28;20043;-77
2022/10/26 08:35:29;;;;;;;19.17;8.70;;;;;;;;;;5073217;28;20111;-77
2022/10/26 08:37:55;;;;;;;19.05;9.52;;;;;;;;;;5073416;28;20078;-77
2022/10/26 08:40:26;;;;;;;18.77;9.45;;;;;;;;;;5074468;28;20021;-77
2022/10/26 08:42:57;;;;;;;20.23;9.27;;;;;;;;;;5082946;28;20020;-77
2022/10/26 08:45:32;;;;;;;19.45;9.02;;;;;;;;;;5073733;28;20481;-78
2022/10/26 08:48:01;;;;;;;21.52;8.20;;;;;;;;;;5073002;28;20428;-77
2022/10/26 08:50:30;;;;;;;17.33;8.30;;;;;;;;;;5074170;28;20056;-77
2022/10/26 08:53:02;;;;;;;15.73;7.50;;;;;;;;;;5072919;28;20025;-77
2022/10/26 08:55:32;;;;;;;19.63;7.13;;;;;;;;;;5074918;28;20465;-78
2022/10/26 08:58:01;;;;;;;22.13;7.50;;;;;;;;;;5072639;28;20100;-77
2022/10/26 09:00:30;;;;;;;21.65;7.90;;;;;;;;;;5075280;28;20081;-76
2022/10/26 09:02:56;;;;;;;17.27;7.35;;;;;;;;;;5076762;28;20025;-78
2022/10/26 09:05:30;;;;;;;20.70;6.68;;;;;;;;;;5073544;28;20025;-78
2022/10/26 09:07:59;;;;;;;13.75;6.78;;;;;;;;;;5074492;28;20431;-78
2022/10/26 09:10:37;;;;;;;26.35;7.15;;;;;;;;;;5077422;28;20036;-77
2022/10/26 09:13:03;;;;;;;18.20;6.53;;;;;;;;;;5076101;28;20521;-77
2022/10/26 09:15:44;;;;;;;14.68;6.28;;;;;;;;;;5074463;28;20534;-78
2022/10/26 09:18:27;;;;;;;28.33;6.95;;;;;;;;;;5081582;28;20111;-79
2022/10/26 09:21:11;;;;;;;16.20;5.70;;;;;;;;;;5076173;28;20064;-78
2022/10/26 09:23:49;;;;;;;15.57;5.88;;;;;;;;;;5074885;28;20025;-76
2022/10/26 09:26:18;;;;;;;11.70;5.32;;;;;;;;;;5076677;28;20384;-77
2022/10/26 09:28:45;;;;;;;17.13;5.43;;;;;;;;;;5076271;28;20406;-78
2022/10/26 09:31:14;;;;;;;15.07;5.82;;;;;;;;;;5075291;28;20099;-78
2022/10/26 09:33:40;;;;;;;18.55;5.45;;;;;;;;;;5074062;28;20020;-77
2022/10/26 09:36:08;;;;;;;14.55;5.50;;;;;;;;;;5080985;28;20510;-77
2022/10/26 09:38:39;;;;;;;15.38;4.68;;;;;;;;;;5076025;28;20020;-77
2022/10/26 09:41:08;;;;;;;16.50;5.30;;;;;;;;;;5076309;28;20024;-78
2022/10/26 09:43:37;;;;;;;12.10;4.38;;;;;;;;;;5077139;28;20021;-77
2022/10/26 09:46:03;;;;;;;14.20;4.50;;;;;;;;;;5078051;28;20013;-77
2022/10/26 09:48:40;;;;;;;19.42;4.88;;;;;;;;;;5076420;28;20115;-77
2022/10/26 09:51:06;;;;;;;14.20;4.55;;;;;;;;;;5075824;28;20035;-77
2022/10/26 09:53:32;;;;;;;15.32;4.45;;;;;;;;;;5074466;28;20100;-77
2022/10/26 09:56:12;;;;;;;14.55;4.68;;;;;;;;;;5074975;28;20136;-78
2022/10/26 09:58:49;;;;;;;12.82;3.88;;;;;;;;;;5076434;28;20029;-77
2022/10/26 10:01:31;;;;;;;11.80;4.50;;;;;;;;;;5075569;28;20038;-77
2022/10/26 10:04:12;;;;;;;12.73;4.90;;;;;;;;;;5074744;28;20402;-77
2022/10/26 10:06:39;;;;;;;13.07;4.03;;;;;;;;;;5072441;28;20146;-76
2022/10/26 10:09:16;;;;;;;14.23;4.32;;;;;;;;;;5071730;28;20033;-77
2022/10/26 10:11:53;;;;;;;10.75;4.10;;;;;;;;;;5073233;28;20442;-76
2022/10/26 10:14:20;;;;;;;18.70;4.07;;;;;;;;;;5073112;28;20178;-76
2022/10/26 10:16:49;;;;;;;8.75;3.88;;;;;;;;;;5073347;28;20085;-76
2022/10/26 10:19:21;;;;;;;16.52;3.95;;;;;;;;;;5073927;28;20020;-76
2022/10/26 10:21:48;;;;;;;15.05;4.43;;;;;;;;;;5073108;28;20370;-76
2022/10/26 10:24:25;;;;;;;7.45;3.13;;;;;;;;;;5075902;28;20095;-77
2022/10/26 10:27:10;;;;;;;12.15;3.55;;;;;;;;;;5080285;28;20013;-75
2022/10/26 10:29:36;;;;;;;;;;;;;;;;;;5081689;28;20400;-75
2022/10/26 10:32:02;;;;;;;8.82;3.25;;;;;;;;;;5083410;28;19911;-75
2022/10/26 10:34:34;;;;;;;8.35;3.58;;;;;;;;;;5080279;28;20043;-77
2022/10/26 10:37:01;;;;;;;11.82;3.65;;;;;;;;;;5078074;28;20062;-76
2022/10/26 10:39:34;;;;;;;14.23;3.33;;;;;;;;;;5077944;28;20044;-75
2022/10/26 10:42:00;;;;;;;9.80;3.25;;;;;;;;;;5075931;28;20060;-77
2022/10/26 10:44:30;;;;;;;14.35;4.05;;;;;;;;;;5078707;28;20089;-77
2022/10/26 10:47:03;;;;;;;10.88;3.50;;;;;;;;;;5075265;28;20024;-77
2022/10/26 10:49:30;;;;;;;14.50;3.70;;;;;;;;;;5074203;28;20044;-78
2022/10/26 10:51:56;;;;;;;9.38;4.10;;;;;;;;;;5072584;28;20024;-78
2022/10/26 10:54:24;;;;;;;13.60;4.10;;;;;;;;;;5073610;28;20029;-76
2022/10/26 10:56:51;;;;;;;11.63;3.40;;;;;;;;;;5076447;28;20025;-78
2022/10/26 10:59:35;;;;;;;12.20;3.70;;;;;;;;;;5076373;28;20440;-77
2022/10/26 11:02:10;;;;;;;13.93;3.75;;;;;;;;;;5076765;28;20028;-77
2022/10/26 11:04:39;;;;;;;11.32;3.85;;;;;;;;;;5076617;28;20036;-77
2022/10/26 11:07:06;;;;;;;11.68;3.65;;;;;;;;;;5076265;28;20050;-77
2022/10/26 11:09:34;;;;;;;12.15;3.40;;;;;;;;;;5078338;28;20032;-76
2022/10/26 11:12:09;;;;;;;15.52;3.13;;;;;;;;;;5077106;28;20028;-77
2022/10/26 11:14:38;;;;;;;9.50;3.30;;;;;;;;;;5098624;28;20017;-77
2022/10/26 11:17:06;;;;;;;12.32;3.35;;;;;;;;;;5090059;28;20124;-77
2022/10/26 11:19:34;;;;;;;11.40;3.75;;;;;;;;;;5078809;28;20488;-77
2022/10/26 11:22:02;;;;;;;14.18;3.22;;;;;;;;;;5078003;28;20025;-77
2022/10/26 11:24:31;;;;;;;16.45;3.40;;;;;;;;;;5077032;28;20591;-77
2022/10/26 11:27:06;;;;;;;12.48;3.97;;;;;;;;;;5076748;28;20471;-77
2022/10/26 11:29:35;;;;;;;13.52;3.47;;;;;;;;;;5078007;28;20024;-77
2022/10/26 11:32:15;;;;;;;9.45;3.15;;;;;;;;;;5076524;28;20021;-77
2022/10/26 11:34:47;;;;;;;15.48;3.53;;;;;;;;;;5077879;28;20017;-77
2022/10/26 11:37:23;;;;;;;17.33;3.20;;;;;;;;;;5077424;28;20031;-78
2022/10/26 11:40:02;;;;;;;5.82;2.60;;;;;;;;;;5077170;28;20078;-78
2022/10/26 11:42:39;;;;;;;11.07;2.75;;;;;;;;;;5077780;28;20138;-77
2022/10/26 11:45:10;;;;;;;9.93;3.33;;;;;;;;;;5081942;28;20052;-78
2022/10/26 11:47:46;;;;;;;9.70;3.00;;;;;;;;;;5080060;28;20025;-77
2022/10/26 11:50:21;;;;;;;9.05;3.67;;;;;;;;;;5081119;28;20067;-78
2022/10/26 11:53:00;;;;;;;12.38;3.55;;;;;;;;;;5077914;28;20323;-76
2022/10/26 11:55:26;;;;;;;16.50;3.35;;;;;;;;;;5075724;28;20035;-77
2022/10/26 11:57:53;;;;;;;9.63;3.58;;;;;;;;;;5076676;28;20032;-78
2022/10/26 12:00:21;;;;;;;12.70;4.88;;;;;;;;;;5075458;28;20029;-78
2022/10/26 12:02:52;;;;;;;12.63;4.70;;;;;;;;;;5078486;28;20385;-78
2022/10/26 12:05:23;;;;;;;8.40;4.50;;;;;;;;;;5076597;28;20393;-77
2022/10/26 12:07:51;;;;;;;13.30;4.40;;;;;;;;;;5076299;28;20024;-77
2022/10/26 12:10:31;;;;;;;12.10;3.30;;;;;;;;;;5077247;28;20124;-78
2022/10/26 12:13:03;;;;;;;12.55;3.50;;;;;;;;;;5077735;28;20481;-77
2022/10/26 12:15:32;;;;;;;7.10;3.17;;;;;;;;;;5077401;28;20020;-78
2022/10/26 12:18:16;;;;;;;10.93;3.65;;;;;;;;;;5078112;28;20025;-77
2022/10/26 12:20:45;;;;;;;10.15;3.97;;;;;;;;;;5074492;28;20024;-78
2022/10/26 12:23:12;;;;;;;13.00;3.80;;;;;;;;;;5076150;28;20032;-78
2022/10/26 12:25:38;;;;;;;12.82;3.85;;;;;;;;;;5076285;28;20033;-78
2022/10/26 12:28:04;;;;;;;13.45;5.43;;;;;;;;;;5075843;28;20435;-77
2022/10/26 12:30:31;;;;;;;12.07;2.85;;;;;;;;;;5076174;28;20034;-78
2022/10/26 12:32:59;;;;;;;13.27;3.05;;;;;;;;;;5076457;28;20021;-78
2022/10/26 12:35:35;;;;;;;12.88;3.75;;;;;;;;;;5077309;28;20093;-79
2022/10/26 12:38:02;;;;;;;15.48;3.50;;;;;;;;;;5076559;28;20572;-78
2022/10/26 12:40:31;;;;;;;17.30;3.45;;;;;;;;;;5076943;28;20215;-77
2022/10/26 12:42:58;;;;;;;11.30;3.20;;;;;;;;;;5075631;28;20111;-79
2022/10/26 12:45:24;;;;;;;10.98;3.92;;;;;;;;;;5076620;28;20025;-79
2022/10/26 12:47:49;;;;;;;13.30;3.35;;;;;;;;;;5076613;28;20024;-80
2022/10/26 12:50:23;;;;;;;9.63;2.70;;;;;;;;;;5077488;28;20025;-76
2022/10/26 12:52:49;;;;;;;9.50;3.15;;;;;;;;;;5075424;28;20020;-78
2022/10/26 12:55:34;;;;;;;7.68;2.70;;;;;;;;;;5079442;28;20024;-77
2022/10/26 12:58:08;;;;;;;12.05;2.97;;;;;;;;;;5090316;28;20028;-78
2022/10/26 13:00:38;;;;;;;12.10;2.80;;;;;;;;;;5095969;28;20111;-78
2022/10/26 13:03:10;;;;;;;8.38;2.85;;;;;;;;;;5096231;28;20042;-78
2022/10/26 13:05:39;;;;;;;10.82;2.90;;;;;;;;;;5095537;28;20025;-79
2022/10/26 13:08:07;;;;;;;9.52;2.45;;;;;;;;;;5088964;28;20044;-77
2022/10/26 13:10:34;;;;;;;21.40;8.30;;;;;;;;;;5088564;28;20028;-76
2022/10/26 13:13:01;;;;;;;11.48;3.05;;;;;;;;;;5087912;22;20035;-73
2022/10/26 13:15:35;;;;;;;11.07;3.30;;;;;;;;;;5041912;28;20036;-75
2022/10/26 13:18:03;;;;;;;11.45;3.05;;;;;;;;;;5066673;28;20405;-72
2022/10/26 13:20:30;;;;;;;14.30;3.30;;;;;;;;;;5071373;28;20048;-73
2022/10/26 13:22:56;;;;;;;6.30;2.85;;;;;;;;;;5076121;28;20037;-76
2022/10/26 13:25:26;;;;;;;14.40;2.67;;;;;;;;;;5073847;28;20032;-73
2022/10/26 13:28:03;;;;;;;11.18;2.65;;;;;;;;;;5055077;28;20047;-73
2022/10/26 13:30:41;;;;;;;10.70;2.80;;;;;;;;;;5069400;28;20517;-73
2022/10/26 13:33:11;;;;;;;10.30;3.65;;;;;;;;;;5053884;28;20413;-73
2022/10/26 13:35:39;;;;;;;6.78;2.70;;;;;;;;;;5053074;28;20025;-73
2022/10/26 13:38:08;;;;;;;12.05;2.50;;;;;;;;;;5053202;28;20020;-72
2022/10/26 13:40:36;;;;;;;10.10;2.63;;;;;;;;;;5053352;28;20102;-72
2022/10/26 13:43:03;;;;;;;13.65;3.17;;;;;;;;;;5053467;28;20021;-73
2022/10/26 13:45:53;;;;;;;5.65;2.30;;;;;;;;;;5053087;28;20056;-73
2022/10/26 13:48:26;;;;;;;10.60;2.72;;;;;;;;;;5043722;28;20116;-74
2022/10/26 13:50:54;;;;;;;12.98;3.22;;;;;;;;;;5036208;28;20025;-73
2022/10/26 13:53:23;;;;;;;10.98;2.47;;;;;;;;;;5053139;28;20025;-73
2022/10/26 13:56:07;;;;;;;10.30;2.60;;;;;;;;;;5052513;28;20025;-73
2022/10/26 13:58:36;;;;;;;13.98;2.70;;;;;;;;;;5053098;28;20055;-72
2022/10/26 14:01:04;;;;;;;12.10;2.38;;;;;;;;;;5052659;28;20025;-74
2022/10/26 14:03:30;;;;;;;14.77;3.10;;;;;;;;;;5035056;28;20025;-73
2022/10/26 14:05:56;;;;;;;14.63;3.28;;;;;;;;;;5053787;28;20033;-72
2022/10/26 14:08:22;;;;;;;14.93;3.65;;;;;;;;;;5054466;28;20100;-73
2022/10/26 14:10:53;;;;;;;11.07;3.42;;;;;;;;;;5056105;28;20021;-74
2022/10/26 14:13:21;;;;;;;10.25;2.80;;;;;;;;;;5052723;28;20028;-74
2022/10/26 14:15:47;;;;;;;10.82;3.17;;;;;;;;;;5052457;28;20059;-74
2022/10/26 14:18:22;;;;;;;9.63;3.08;;;;;;;;;;5053171;28;20056;-74
2022/10/26 14:20:52;;;;;;;10.85;4.20;;;;;;;;;;5053798;28;20025;-73
2022/10/26 14:23:28;;;;;;;10.90;3.45;;;;;;;;;;5052884;28;20028;-73
2022/10/26 14:25:54;;;;;;;9.40;2.90;;;;;;;;;;5053152;28;20431;-71
2022/10/26 14:28:29;;;;;;;11.10;3.10;;;;;;;;;;5053750;28;20044;-74
2022/10/26 14:30:56;;;;;;;;;;;;;;;;;;5058724;28;20054;-75
2022/10/26 14:33:27;;;;;;;6.63;2.65;;;;;;;;;;5039251;28;20359;-73
2022/10/26 14:35:53;;;;;;;17.00;3.55;;;;;;;;;;5039305;28;20401;-73